createdAt,value
2018-09-20T00:00:12.597Z,5.00
2018-09-20T00:02:40.933Z,4.00
2018-09-20T00:05:09.254Z,3.90
2018-09-20T00:07:37.591Z,4.03
2018-09-20T00:10:06.140Z,4.80
2018-09-20T00:12:34.501Z,4.50
2018-09-20T00:15:02.848Z,5.43
2018-09-20T00:17:31.161Z,4.97
2018-09-20T00:19:59.497Z,4.83
2018-09-20T00:22:27.844Z,3.93
2018-09-20T00:24:56.189Z,5.00
2018-09-20T00:27:24.520Z,4.23
2018-09-20T00:29:52.857Z,4.13
2018-09-20T00:32:21.172Z,3.67
2018-09-20T00:34:49.537Z,4.40
2018-09-20T00:37:17.860Z,3.80
2018-09-20T00:39:46.179Z,4.47
2018-09-20T00:42:14.493Z,4.20
2018-09-20T00:44:42.875Z,4.10
2018-09-20T00:47:11.187Z,4.60
2018-09-20T00:49:39.524Z,4.83
2018-09-20T00:52:07.831Z,5.30
2018-09-20T00:54:36.333Z,4.33
2018-09-20T00:57:04.720Z,3.80
2018-09-20T00:59:33.064Z,5.77
2018-09-20T01:02:01.413Z,4.43
2018-09-20T01:04:29.749Z,4.37
2018-09-20T01:06:58.093Z,5.37
2018-09-20T01:09:26.453Z,4.90
2018-09-20T01:11:54.794Z,4.20
2018-09-20T01:14:23.205Z,4.97
2018-09-20T01:16:51.544Z,4.40
2018-09-20T01:19:19.919Z,5.40
2018-09-20T01:21:48.258Z,4.83
2018-09-20T01:24:16.597Z,4.47
2018-09-20T01:26:44.939Z,5.07
2018-09-20T01:29:13.285Z,4.20
2018-09-20T01:31:41.609Z,4.60
2018-09-20T01:34:09.974Z,4.40
2018-09-20T01:36:38.313Z,4.23
2018-09-20T01:39:13.397Z,4.53
2018-09-20T01:41:41.764Z,4.80
2018-09-20T01:44:10.463Z,4.20
2018-09-20T01:46:38.819Z,5.03
2018-09-20T01:49:08.080Z,5.10
2018-09-20T01:51:36.413Z,6.27
2018-09-20T01:54:04.773Z,4.73
2018-09-20T01:56:33.120Z,5.60
2018-09-20T01:59:01.916Z,4.87
2018-09-20T02:01:30.425Z,5.43
2018-09-20T02:03:58.772Z,5.27
2018-09-20T02:06:27.141Z,5.03
2018-09-20T02:08:55.668Z,5.33
2018-09-20T02:11:24.075Z,5.03
2018-09-20T02:13:52.433Z,4.60
2018-09-20T02:16:20.794Z,5.87
2018-09-20T02:18:49.143Z,5.63
2018-09-20T02:21:17.528Z,5.30
2018-09-20T02:23:45.881Z,5.50
2018-09-20T02:26:14.248Z,5.67
2018-09-20T02:28:42.592Z,4.77
2018-09-20T02:31:10.946Z,5.50
2018-09-20T02:33:39.278Z,5.92
2018-09-20T02:36:07.627Z,5.27
2018-09-20T02:38:36.019Z,5.43
2018-09-20T02:41:04.404Z,4.90
2018-09-20T02:43:32.778Z,4.60
2018-09-20T02:46:01.145Z,5.90
2018-09-20T02:48:29.824Z,5.90
2018-09-20T02:50:58.206Z,4.73
2018-09-20T02:53:26.558Z,4.40
2018-09-20T02:55:54.929Z,5.40
2018-09-20T02:58:23.276Z,4.73
2018-09-20T03:00:51.645Z,4.77
2018-09-20T03:03:19.982Z,5.43
2018-09-20T03:05:48.341Z,5.03
2018-09-20T03:08:16.700Z,4.83
2018-09-20T03:10:45.093Z,6.00
2018-09-20T03:13:13.441Z,5.97
2018-09-20T03:15:41.890Z,5.60
2018-09-20T03:18:10.242Z,5.07
2018-09-20T03:20:38.605Z,5.73
2018-09-20T03:23:06.978Z,6.93
2018-09-20T03:25:35.523Z,6.13
2018-09-20T03:28:03.895Z,6.50
2018-09-20T03:30:32.454Z,7.60
2018-09-20T03:33:00.686Z,5.30
2018-09-20T03:35:29.061Z,5.87
2018-09-20T03:37:57.422Z,5.87
2018-09-20T03:40:25.760Z,6.40
2018-09-20T03:42:54.101Z,5.30
2018-09-20T03:45:22.524Z,6.37
2018-09-20T03:47:50.869Z,6.50
2018-09-20T03:50:19.220Z,6.70
2018-09-20T03:52:47.780Z,6.40
2018-09-20T03:55:16.121Z,5.60
2018-09-20T03:57:44.465Z,6.33
2018-09-20T04:00:12.825Z,5.80
2018-09-20T04:02:41.257Z,6.50
2018-09-20T04:05:09.589Z,5.17
2018-09-20T04:07:37.941Z,5.50
2018-09-20T04:10:06.309Z,6.70
2018-09-20T04:12:34.711Z,6.23
2018-09-20T04:15:03.069Z,6.20
2018-09-20T04:17:31.628Z,5.80
2018-09-20T04:19:59.973Z,6.23
2018-09-20T04:22:28.334Z,6.33
2018-09-20T04:24:56.680Z,6.37
2018-09-20T04:27:25.033Z,6.23
2018-09-20T04:29:53.381Z,5.93
2018-09-20T04:32:21.750Z,6.20
2018-09-20T04:34:50.102Z,6.37
2018-09-20T04:37:18.452Z,5.80
2018-09-20T04:39:46.796Z,6.27
2018-09-20T04:42:15.157Z,7.47
2018-09-20T04:44:43.560Z,6.13
2018-09-20T04:47:18.175Z,6.77
2018-09-20T04:49:46.501Z,7.03
2018-09-20T04:52:14.851Z,8.00
2018-09-20T04:54:43.185Z,8.00
2018-09-20T04:57:11.524Z,9.63
2018-09-20T04:59:39.857Z,6.67
2018-09-20T05:02:08.221Z,7.23
2018-09-20T05:04:36.732Z,7.70
2018-09-20T05:07:05.106Z,9.60
2018-09-20T05:09:33.466Z,7.43
2018-09-20T05:12:01.825Z,7.57
2018-09-20T05:14:30.168Z,7.50
2018-09-20T05:16:58.531Z,8.00
2018-09-20T05:19:26.956Z,8.37
2018-09-20T05:21:55.689Z,9.03
2018-09-20T05:24:24.009Z,8.20
2018-09-20T05:26:52.348Z,8.10
2018-09-20T05:29:21.772Z,7.83
2018-09-20T05:31:50.113Z,8.80
2018-09-20T05:34:18.481Z,7.13
2018-09-20T05:36:46.849Z,8.90
2018-09-20T05:39:15.280Z,8.27
2018-09-20T05:41:43.751Z,8.30
2018-09-20T05:44:12.168Z,7.93
2018-09-20T05:46:41.084Z,8.77
2018-09-20T05:49:09.440Z,8.70
2018-09-20T05:51:37.777Z,7.90
2018-09-20T05:54:06.296Z,10.20
2018-09-20T05:56:34.632Z,8.53
2018-09-20T05:59:03.152Z,8.80
2018-09-20T06:01:31.524Z,8.33
2018-09-20T06:03:59.880Z,7.60
2018-09-20T06:06:28.213Z,9.03
2018-09-20T06:08:56.564Z,9.10
2018-09-20T06:11:24.888Z,8.33
2018-09-20T06:13:53.642Z,7.43
2018-09-20T06:16:21.984Z,8.47
2018-09-20T06:18:50.367Z,8.30
2018-09-20T06:21:18.752Z,7.40
2018-09-20T06:23:47.127Z,8.43
2018-09-20T06:26:15.451Z,8.00
2018-09-20T06:28:43.796Z,9.30
2018-09-20T06:31:12.124Z,8.70
2018-09-20T06:33:40.481Z,8.30
2018-09-20T06:36:08.884Z,7.70
2018-09-20T06:38:37.240Z,8.37
2018-09-20T06:41:05.629Z,6.47
2018-09-20T06:43:33.956Z,7.70
2018-09-20T06:46:02.296Z,7.40
2018-09-20T06:48:30.716Z,7.80
2018-09-20T06:50:59.072Z,8.13
2018-09-20T06:53:27.436Z,7.67
2018-09-20T06:55:55.792Z,7.13
2018-09-20T06:58:24.152Z,7.70
2018-09-20T07:00:52.502Z,7.90
2018-09-20T07:03:20.888Z,7.83
2018-09-20T07:05:49.229Z,8.43
2018-09-20T07:08:17.604Z,8.40
2018-09-20T07:10:46.098Z,7.80
2018-09-20T07:13:14.504Z,7.60
2018-09-20T07:15:42.849Z,7.37
2018-09-20T07:18:11.242Z,7.70
2018-09-20T07:20:39.599Z,6.57
2018-09-20T07:23:08.128Z,7.00
2018-09-20T07:25:36.525Z,7.23
2018-09-20T07:28:04.905Z,7.20
2018-09-20T07:30:33.290Z,7.17
2018-09-20T07:33:01.985Z,6.83
2018-09-20T07:35:30.325Z,7.50
2018-09-20T07:37:58.679Z,6.50
2018-09-20T07:40:27.068Z,6.23
2018-09-20T07:42:55.425Z,7.40
2018-09-20T07:45:23.780Z,7.07
2018-09-20T07:47:52.133Z,7.67
2018-09-20T07:50:20.521Z,6.27
2018-09-20T07:52:48.933Z,7.50
2018-09-20T07:55:17.293Z,6.90
2018-09-20T07:57:45.652Z,7.07
2018-09-20T08:00:14.033Z,7.03
2018-09-20T08:02:42.403Z,7.20
2018-09-20T08:05:10.740Z,8.33
2018-09-20T08:07:39.068Z,7.47
2018-09-20T08:10:07.420Z,7.50
2018-09-20T08:12:35.835Z,7.60
2018-09-20T08:15:04.163Z,5.60
2018-09-20T08:17:32.475Z,7.20
2018-09-20T08:20:00.799Z,6.50
2018-09-20T08:22:29.135Z,6.30
2018-09-20T08:24:57.508Z,7.17
2018-09-20T08:27:25.828Z,6.70
2018-09-20T08:29:54.143Z,6.70
2018-09-20T08:32:22.459Z,8.37
2018-09-20T08:34:50.800Z,8.40
2018-09-20T08:37:19.156Z,7.90
2018-09-20T08:39:47.431Z,7.47
2018-09-20T08:42:15.813Z,6.47
2018-09-20T08:44:44.156Z,6.70
2018-09-20T08:47:12.483Z,6.77
2018-09-20T08:49:40.839Z,6.53
2018-09-20T08:52:09.152Z,6.10
2018-09-20T08:54:37.463Z,6.93
2018-09-20T08:57:06.183Z,6.90
2018-09-20T08:59:34.512Z,6.60
2018-09-20T09:02:02.909Z,7.33
2018-09-20T09:04:31.297Z,6.53
2018-09-20T09:06:59.670Z,5.50
2018-09-20T09:09:28.128Z,5.60
2018-09-20T09:11:56.507Z,5.30
2018-09-20T09:14:24.813Z,5.53
2018-09-20T09:16:53.149Z,4.43
2018-09-20T09:19:21.523Z,4.70
2018-09-20T09:21:49.841Z,4.57
2018-09-20T09:24:18.222Z,5.10
2018-09-20T09:26:46.545Z,5.03
2018-09-20T09:29:14.881Z,3.87
2018-09-20T09:31:43.220Z,4.70
2018-09-20T09:34:11.739Z,4.37
2018-09-20T09:36:40.067Z,4.70
2018-09-20T09:39:10.655Z,4.80
2018-09-20T09:41:39.013Z,5.60
2018-09-20T09:44:07.336Z,4.73
2018-09-20T09:46:35.666Z,4.90
2018-09-20T09:49:04.036Z,4.43
2018-09-20T09:51:32.375Z,6.60
2018-09-20T09:54:00.740Z,5.00
2018-09-20T09:56:29.230Z,4.70
2018-09-20T09:58:57.589Z,5.30
2018-09-20T10:01:26.009Z,5.23
2018-09-20T10:03:54.364Z,4.90
2018-09-20T10:06:22.741Z,4.67
2018-09-20T10:08:51.132Z,4.80
2018-09-20T10:11:19.569Z,5.07
2018-09-20T10:13:48.060Z,5.03
2018-09-20T10:16:16.361Z,5.73
2018-09-20T10:18:44.705Z,5.50
2018-09-20T10:21:13.074Z,4.47
2018-09-20T10:23:41.447Z,5.33
2018-09-20T10:26:09.816Z,5.37
2018-09-20T10:28:38.162Z,5.77
2018-09-20T10:31:06.512Z,5.37
2018-09-20T10:33:34.859Z,4.60
2018-09-20T10:36:03.218Z,4.63
2018-09-20T10:39:01.208Z,4.97
2018-09-20T10:41:29.561Z,5.23
2018-09-20T10:43:58.105Z,6.23
2018-09-20T10:46:26.473Z,4.77
2018-09-20T10:48:54.812Z,5.67
2018-09-20T10:51:23.164Z,5.63
2018-09-20T10:53:51.526Z,5.87
2018-09-20T10:56:19.873Z,6.50
2018-09-20T10:58:48.212Z,5.40
2018-09-20T11:01:16.588Z,4.47
2018-09-20T11:03:44.928Z,4.90
2018-09-20T11:06:13.273Z,5.40
2018-09-20T11:08:41.637Z,4.40
2018-09-20T11:11:09.972Z,5.33
2018-09-20T11:13:38.304Z,4.90
2018-09-20T11:16:06.689Z,4.90
2018-09-20T11:18:35.013Z,5.07
2018-09-20T11:21:03.352Z,4.43
2018-09-20T11:23:31.684Z,5.17
2018-09-20T11:26:00.149Z,5.57
2018-09-20T11:28:28.380Z,5.87
2018-09-20T11:30:56.728Z,6.23
2018-09-20T11:33:25.109Z,4.27
2018-09-20T11:35:53.461Z,4.90
2018-09-20T11:38:21.811Z,4.83
2018-09-20T11:40:50.156Z,4.40
2018-09-20T11:43:18.484Z,3.77
2018-09-20T11:45:46.854Z,3.63
2018-09-20T11:48:15.169Z,3.20
2018-09-20T11:50:43.499Z,4.00
2018-09-20T11:53:11.829Z,3.50
2018-09-20T11:55:40.178Z,3.83
2018-09-20T11:58:09.343Z,3.43
2018-09-20T12:00:37.716Z,4.27
2018-09-20T12:03:06.244Z,4.53
2018-09-20T12:05:34.581Z,4.30
2018-09-20T12:08:02.957Z,3.23
2018-09-20T12:10:31.394Z,3.77
2018-09-20T12:12:59.728Z,3.90
2018-09-20T12:15:28.062Z,4.20
2018-09-20T12:17:56.397Z,4.07
2018-09-20T12:20:25.601Z,3.70
2018-09-20T12:22:55.072Z,4.67
2018-09-20T12:25:23.396Z,4.03
2018-09-20T12:27:52.401Z,4.10
2018-09-20T12:30:21.098Z,3.97
2018-09-20T12:32:49.478Z,5.00
2018-09-20T12:35:17.850Z,4.50
2018-09-20T12:37:46.229Z,3.30
2018-09-20T12:40:14.629Z,3.57
2018-09-20T12:42:42.972Z,3.97
2018-09-20T12:45:11.354Z,4.30
2018-09-20T12:47:39.688Z,4.27
2018-09-20T12:50:08.073Z,4.43
2018-09-20T12:52:36.399Z,4.03
2018-09-20T12:55:04.980Z,4.60
2018-09-20T12:57:33.427Z,4.50
2018-09-20T13:00:01.780Z,4.50
2018-09-20T13:02:30.181Z,4.50
2018-09-20T13:04:58.536Z,4.23
2018-09-20T13:07:26.928Z,4.80
2018-09-20T13:09:55.284Z,4.07
2018-09-20T13:12:23.633Z,4.40
2018-09-20T13:14:51.985Z,3.97
2018-09-20T13:17:20.347Z,5.00
2018-09-20T13:19:48.738Z,4.20
2018-09-20T13:22:17.095Z,5.10
2018-09-20T13:24:45.552Z,5.67
2018-09-20T13:27:13.884Z,4.43
2018-09-20T13:29:42.294Z,5.20
2018-09-20T13:32:10.680Z,4.70
2018-09-20T13:34:39.028Z,5.07
2018-09-20T13:37:07.389Z,4.63
2018-09-20T13:39:35.736Z,4.07
2018-09-20T13:42:04.092Z,4.43
2018-09-20T13:44:32.453Z,3.83
2018-09-20T13:47:00.912Z,6.50
2018-09-20T13:49:29.296Z,4.73
2018-09-20T13:51:57.712Z,4.77
2018-09-20T13:54:26.017Z,5.23
2018-09-20T13:56:54.348Z,4.63
2018-09-20T13:59:22.691Z,5.60
2018-09-20T14:01:51.036Z,5.00
2018-09-20T14:04:19.401Z,5.53
2018-09-20T14:06:47.784Z,4.90
2018-09-20T14:09:16.165Z,5.57
2018-09-20T14:11:44.520Z,5.27
2018-09-20T14:14:12.868Z,4.47
2018-09-20T14:16:41.217Z,4.80
2018-09-20T14:19:09.739Z,5.63
2018-09-20T14:21:38.081Z,5.07
2018-09-20T14:24:06.717Z,5.73
2018-09-20T14:26:35.052Z,4.63
2018-09-20T14:29:03.397Z,4.30
2018-09-20T14:31:31.732Z,4.63
2018-09-20T14:34:00.072Z,5.00
2018-09-20T14:36:28.421Z,5.40
2018-09-20T14:38:56.769Z,4.60
2018-09-20T14:41:25.147Z,5.60
2018-09-20T14:43:53.613Z,7.43
2018-09-20T14:46:21.981Z,5.70
2018-09-20T14:48:50.297Z,4.37
2018-09-20T14:51:18.664Z,4.63
2018-09-20T14:53:47.054Z,4.97
2018-09-20T14:56:15.458Z,4.23
2018-09-20T14:58:43.846Z,4.43
2018-09-20T15:01:12.228Z,5.13
2018-09-20T15:03:40.621Z,4.53
2018-09-20T15:06:09.014Z,5.00
2018-09-20T15:08:37.381Z,4.00
2018-09-20T15:11:05.912Z,5.13
2018-09-20T15:13:34.241Z,5.00
2018-09-20T15:16:02.644Z,5.17
2018-09-20T15:18:31.017Z,5.97
2018-09-20T15:20:59.387Z,4.90
2018-09-20T15:23:27.735Z,4.70
2018-09-20T15:25:56.092Z,4.47
2018-09-20T15:28:24.435Z,4.27
2018-09-20T15:30:52.789Z,5.30
2018-09-20T15:33:21.132Z,4.90
2018-09-20T15:35:49.561Z,4.80
2018-09-20T15:38:17.924Z,4.70
2018-09-20T15:40:46.357Z,5.30
2018-09-20T15:43:14.734Z,4.37
2018-09-20T15:45:43.237Z,5.80
2018-09-20T15:48:11.577Z,5.20
2018-09-20T15:50:39.934Z,5.30
2018-09-20T15:53:08.321Z,4.17
2018-09-20T15:55:36.693Z,4.50
2018-09-20T15:58:05.101Z,5.23
2018-09-20T16:00:33.562Z,4.80
2018-09-20T16:03:01.898Z,4.43
2018-09-20T16:05:30.208Z,5.17
2018-09-20T16:07:58.552Z,4.97
2018-09-20T16:10:26.902Z,5.00
2018-09-20T16:12:55.261Z,4.10
2018-09-20T16:15:23.588Z,5.30
2018-09-20T16:17:51.932Z,4.37
2018-09-20T16:20:20.380Z,4.60
2018-09-20T16:22:48.704Z,4.77
2018-09-20T16:25:17.044Z,4.57
2018-09-20T16:27:45.416Z,4.23
2018-09-20T16:30:43.128Z,4.50
2018-09-20T16:33:26.021Z,5.57
2018-09-20T16:36:04.964Z,4.70
2018-09-20T16:38:45.652Z,4.60
2018-09-20T16:41:16.923Z,5.30
2018-09-20T16:43:45.248Z,4.77
2018-09-20T16:46:13.576Z,4.73
2018-09-20T16:48:41.971Z,5.17
2018-09-20T16:51:10.308Z,4.43
2018-09-20T16:53:38.657Z,4.80
2018-09-20T16:56:13.873Z,4.73
2018-09-20T16:58:46.346Z,5.60
2018-09-20T17:01:14.692Z,4.77
2018-09-20T17:03:43.010Z,5.50
2018-09-20T17:06:11.724Z,5.63
2018-09-20T17:08:40.068Z,5.40
2018-09-20T17:11:08.391Z,5.50
2018-09-20T17:13:36.775Z,5.30
2018-09-20T17:16:05.185Z,6.47
2018-09-20T17:18:33.528Z,6.07
2018-09-20T17:21:01.856Z,6.10
2018-09-20T17:23:30.212Z,6.33
2018-09-20T17:25:58.571Z,7.40
2018-09-20T17:28:26.883Z,6.80
2018-09-20T17:30:55.232Z,7.13
2018-09-20T17:33:23.539Z,7.97
2018-09-20T17:35:52.388Z,6.70
2018-09-20T17:38:21.643Z,6.40
2018-09-20T17:40:54.107Z,7.47
2018-09-20T17:43:25.874Z,5.93
2018-09-20T17:45:54.632Z,6.60
2018-09-20T17:48:23.032Z,6.80
2018-09-20T17:50:51.944Z,6.70
2018-09-20T17:53:21.130Z,7.30
2018-09-20T17:55:51.221Z,7.17
2018-09-20T17:58:20.325Z,6.63
2018-09-20T18:00:48.885Z,7.47
2018-09-20T18:03:17.261Z,7.85
2018-09-20T18:05:45.689Z,7.80
2018-09-20T18:08:14.081Z,8.20
2018-09-20T18:10:42.421Z,6.70
2018-09-20T18:13:10.837Z,7.10
2018-09-20T18:15:39.239Z,8.13
2018-09-20T18:18:07.656Z,8.57
2018-09-20T18:20:35.891Z,9.07
2018-09-20T18:23:04.190Z,8.30
2018-09-20T18:25:35.022Z,8.10
2018-09-20T18:28:03.862Z,8.50
2018-09-20T18:30:32.158Z,9.47
2018-09-20T18:33:01.216Z,8.63
2018-09-20T18:35:29.767Z,9.80
2018-09-20T18:37:58.112Z,9.10
2018-09-20T18:40:26.414Z,8.37
2018-09-20T18:42:54.722Z,8.67
2018-09-20T18:45:23.111Z,7.30
2018-09-20T18:47:51.414Z,7.43
2018-09-20T18:50:19.716Z,9.40
2018-09-20T18:52:48.128Z,8.70
2018-09-20T18:55:16.513Z,8.60
2018-09-20T18:57:44.890Z,9.73
2018-09-20T19:00:13.230Z,9.73
2018-09-20T19:02:41.581Z,10.00
2018-09-20T19:05:09.935Z,10.90
2018-09-20T19:07:38.317Z,10.23
2018-09-20T19:12:57.192Z,11.00
2018-09-20T19:15:25.472Z,11.60
2018-09-20T19:17:53.882Z,10.10
2018-09-20T19:20:22.897Z,10.20
2018-09-20T19:22:51.234Z,9.83
2018-09-20T19:25:19.608Z,10.40
2018-09-20T19:27:47.993Z,11.00
2018-09-20T19:30:16.353Z,11.30
2018-09-20T19:32:44.693Z,10.93
2018-09-20T19:35:13.078Z,11.13
2018-09-20T19:37:41.429Z,10.90
2018-09-20T19:40:09.812Z,11.60
2018-09-20T19:42:38.525Z,12.50
2018-09-20T19:45:06.968Z,12.70
2018-09-20T19:47:35.289Z,10.20
2018-09-20T19:50:03.708Z,11.80
2018-09-20T19:52:32.074Z,10.50
2018-09-20T19:55:00.552Z,11.70
2018-09-20T19:57:29.012Z,12.13
2018-09-20T19:59:57.409Z,12.37
2018-09-20T20:02:25.749Z,11.03
2018-09-20T20:04:54.153Z,11.90
2018-09-20T20:07:22.669Z,11.50
2018-09-20T20:09:51.033Z,12.50
2018-09-20T20:12:19.812Z,12.40
2018-09-20T20:14:48.152Z,11.77
2018-09-20T20:17:16.501Z,11.07
2018-09-20T20:19:45.101Z,11.83
2018-09-20T20:22:13.429Z,10.30
2018-09-20T20:24:41.769Z,11.97
2018-09-20T20:27:10.161Z,10.70
2018-09-20T20:29:38.555Z,10.67
2018-09-20T20:32:07.457Z,10.93
2018-09-20T20:34:35.816Z,12.83
2018-09-20T20:37:04.270Z,12.53
2018-09-20T20:39:32.599Z,13.90
2018-09-20T20:42:01.009Z,10.80
2018-09-20T20:44:29.328Z,12.33
2018-09-20T20:46:57.639Z,11.27
2018-09-20T20:49:25.985Z,12.77
2018-09-20T20:51:54.304Z,11.70
2018-09-20T20:54:22.628Z,12.83
2018-09-20T20:56:51.049Z,12.27
2018-09-20T20:59:19.485Z,11.27
2018-09-20T21:01:47.837Z,10.10
2018-09-20T21:04:16.214Z,10.30
2018-09-20T21:06:44.556Z,10.83
2018-09-20T21:09:13.153Z,9.80
2018-09-20T21:11:41.689Z,9.67
2018-09-20T21:14:10.053Z,8.80
2018-09-20T21:16:38.387Z,8.73
2018-09-20T21:19:06.780Z,8.50
2018-09-20T21:21:35.121Z,8.37
2018-09-20T21:24:03.497Z,7.67
2018-09-20T21:26:31.865Z,8.17
2018-09-20T21:29:00.199Z,7.13
2018-09-20T21:31:28.552Z,6.47
2018-09-20T21:33:56.901Z,6.80
2018-09-20T21:36:25.748Z,7.43
2018-09-20T21:38:54.337Z,6.47
2018-09-20T21:41:22.707Z,6.63
2018-09-20T21:43:51.089Z,6.27
2018-09-20T21:46:19.392Z,6.30
2018-09-20T21:48:47.745Z,5.60
2018-09-20T21:51:16.091Z,6.53
2018-09-20T21:53:44.435Z,6.30
2018-09-20T21:56:12.781Z,5.73
2018-09-20T21:58:41.165Z,6.40
2018-09-20T22:01:13.025Z,5.50
2018-09-20T22:03:41.453Z,5.90
2018-09-20T22:06:09.933Z,5.97
2018-09-20T22:08:38.807Z,5.73
2018-09-20T22:11:07.220Z,5.50
2018-09-20T22:13:35.596Z,6.00
2018-09-20T22:16:04.015Z,5.93
2018-09-20T22:18:32.333Z,5.30
2018-09-20T22:21:00.680Z,5.93
2018-09-20T22:23:29.040Z,5.87
2018-09-20T22:25:57.372Z,5.80
2018-09-20T22:28:25.723Z,5.83
2018-09-20T22:30:55.081Z,5.70
2018-09-20T22:33:23.508Z,6.20
2018-09-20T22:35:51.844Z,6.53
2018-09-20T22:38:20.188Z,5.40
2018-09-20T22:40:48.512Z,5.93
2018-09-20T22:43:16.905Z,6.77
2018-09-20T22:45:45.265Z,6.20
2018-09-20T22:48:13.593Z,6.03
2018-09-20T22:50:41.920Z,5.50
2018-09-20T22:53:10.257Z,6.30
2018-09-20T22:55:38.692Z,6.90
2018-09-20T22:58:07.395Z,6.97
2018-09-20T23:00:35.760Z,6.83
2018-09-20T23:03:04.060Z,6.20
2018-09-20T23:05:32.364Z,6.77
2018-09-20T23:08:00.700Z,6.40
2018-09-20T23:10:29.003Z,6.40
2018-09-20T23:12:57.372Z,5.60
2018-09-20T23:15:25.920Z,7.03
2018-09-20T23:17:54.248Z,6.10
2018-09-20T23:20:22.583Z,6.37
2018-09-20T23:22:50.916Z,6.67
2018-09-20T23:25:19.321Z,6.20
2018-09-20T23:27:47.638Z,7.10
2018-09-20T23:30:16.028Z,6.50
2018-09-20T23:32:44.328Z,5.97
2018-09-20T23:35:12.647Z,6.97
2018-09-20T23:37:40.996Z,7.57
2018-09-20T23:40:09.344Z,6.50
2018-09-20T23:42:37.669Z,5.63
2018-09-20T23:45:06.083Z,7.17
2018-09-20T23:47:34.387Z,6.43
2018-09-20T23:50:02.757Z,6.50
2018-09-20T23:52:31.120Z,6.37
2018-09-20T23:54:59.455Z,6.27
2018-09-20T23:57:27.975Z,6.93
2018-09-20T23:59:56.499Z,6.30
